sensor_id;sensor_type;location;lat;lon;timestamp;temperature;humidity
52471;DHT22;38382;53.160;7.026;2023-07-29T00:02:01;17.90;99.90
52471;DHT22;38382;53.160;7.026;2023-07-29T00:04:26;17.90;99.90
52471;DHT22;38382;53.160;7.026;2023-07-29T00:06:52;17.90;99.90
52471;DHT22;38382;53.160;7.026;2023-07-29T00:09:18;17.90;99.90
52471;DHT22;38382;53.160;7.026;2023-07-29T00:11:43;17.90;99.90
52471;DHT22;38382;53.160;7.026;2023-07-29T00:14:09;17.90;99.90
52471;DHT22;38382;53.160;7.026;2023-07-29T00:16:35;17.80;99.90
52471;DHT22;38382;53.160;7.026;2023-07-29T00:19:02;17.80;99.90
52471;DHT22;38382;53.160;7.026;2023-07-29T00:21:28;17.80;99.90
52471;DHT22;38382;53.160;7.026;2023-07-29T00:23:54;17.80;99.90
52471;DHT22;38382;53.160;7.026;2023-07-29T00:26:23;17.80;99.90
52471;DHT22;38382;53.160;7.026;2023-07-29T00:28:51;17.80;99.90
52471;DHT22;38382;53.160;7.026;2023-07-29T00:31:17;17.80;99.90
52471;DHT22;38382;53.160;7.026;2023-07-29T00:33:43;17.80;99.90
52471;DHT22;38382;53.160;7.026;2023-07-29T00:36:08;17.80;99.90
52471;DHT22;38382;53.160;7.026;2023-07-29T00:38:34;17.80;99.90
52471;DHT22;38382;53.160;7.026;2023-07-29T00:41:02;17.70;99.90
52471;DHT22;38382;53.160;7.026;2023-07-29T00:43:28;17.70;99.90
52471;DHT22;38382;53.160;7.026;2023-07-29T00:45:54;17.70;99.90
52471;DHT22;38382;53.160;7.026;2023-07-29T00:48:20;17.70;99.90
52471;DHT22;38382;53.160;7.026;2023-07-29T00:50:46;17.60;99.90
52471;DHT22;38382;53.160;7.026;2023-07-29T00:53:12;17.60;99.90
52471;DHT22;38382;53.160;7.026;2023-07-29T00:55:38;17.60;99.90
52471;DHT22;38382;53.160;7.026;2023-07-29T00:58:03;17.60;99.90
52471;DHT22;38382;53.160;7.026;2023-07-29T01:00:29;17.50;99.90
52471;DHT22;38382;53.160;7.026;2023-07-29T01:02:55;17.50;99.90
52471;DHT22;38382;53.160;7.026;2023-07-29T01:05:21;17.50;99.90
52471;DHT22;38382;53.160;7.026;2023-07-29T01:07:58;17.50;99.90
52471;DHT22;38382;53.160;7.026;2023-07-29T01:10:40;17.40;99.90
52471;DHT22;38382;53.160;7.026;2023-07-29T01:13:29;17.40;99.90
52471;DHT22;38382;53.160;7.026;2023-07-29T01:16:05;17.40;99.90
52471;DHT22;38382;53.160;7.026;2023-07-29T01:18:35;17.40;99.90
52471;DHT22;38382;53.160;7.026;2023-07-29T01:21:04;17.40;99.90
52471;DHT22;38382;53.160;7.026;2023-07-29T01:23:34;17.40;99.90
52471;DHT22;38382;53.160;7.026;2023-07-29T01:26:00;17.40;99.90
52471;DHT22;38382;53.160;7.026;2023-07-29T01:28:27;17.40;99.90
52471;DHT22;38382;53.160;7.026;2023-07-29T01:31:03;17.40;99.90
52471;DHT22;38382;53.160;7.026;2023-07-29T01:33:37;17.40;99.90
52471;DHT22;38382;53.160;7.026;2023-07-29T01:36:13;17.40;99.90
52471;DHT22;38382;53.160;7.026;2023-07-29T01:38:42;17.40;99.90
52471;DHT22;38382;53.160;7.026;2023-07-29T01:41:09;17.40;99.90
52471;DHT22;38382;53.160;7.026;2023-07-29T01:43:36;17.40;99.90
52471;DHT22;38382;53.160;7.026;2023-07-29T01:46:12;17.40;99.90
52471;DHT22;38382;53.160;7.026;2023-07-29T01:48:38;17.30;99.90
52471;DHT22;38382;53.160;7.026;2023-07-29T01:51:05;17.30;99.90
52471;DHT22;38382;53.160;7.026;2023-07-29T01:53:31;17.20;99.90
52471;DHT22;38382;53.160;7.026;2023-07-29T01:55:57;17.20;99.90
52471;DHT22;38382;53.160;7.026;2023-07-29T01:58:23;17.20;99.90
52471;DHT22;38382;53.160;7.026;2023-07-29T02:00:49;17.20;99.90
52471;DHT22;38382;53.160;7.026;2023-07-29T02:03:15;17.10;99.90
52471;DHT22;38382;53.160;7.026;2023-07-29T02:05:41;17.10;99.90
52471;DHT22;38382;53.160;7.026;2023-07-29T02:08:09;17.10;99.90
52471;DHT22;38382;53.160;7.026;2023-07-29T02:10:35;17.10;99.90
52471;DHT22;38382;53.160;7.026;2023-07-29T02:13:01;17.10;99.90
52471;DHT22;38382;53.160;7.026;2023-07-29T02:15:27;17.10;99.90
52471;DHT22;38382;53.160;7.026;2023-07-29T02:17:53;17.10;99.90
52471;DHT22;38382;53.160;7.026;2023-07-29T02:20:19;17.10;99.90
52471;DHT22;38382;53.160;7.026;2023-07-29T02:22:45;17.00;99.90
52471;DHT22;38382;53.160;7.026;2023-07-29T02:25:11;17.00;99.90
52471;DHT22;38382;53.160;7.026;2023-07-29T02:27:36;17.00;99.90
52471;DHT22;38382;53.160;7.026;2023-07-29T02:30:02;17.00;99.90
52471;DHT22;38382;53.160;7.026;2023-07-29T02:32:28;17.00;99.90
52471;DHT22;38382;53.160;7.026;2023-07-29T02:34:54;17.00;99.90
52471;DHT22;38382;53.160;7.026;2023-07-29T02:37:20;17.00;99.90
52471;DHT22;38382;53.160;7.026;2023-07-29T02:39:46;17.00;99.90
52471;DHT22;38382;53.160;7.026;2023-07-29T02:42:12;17.00;99.90
52471;DHT22;38382;53.160;7.026;2023-07-29T02:44:38;17.00;99.90
52471;DHT22;38382;53.160;7.026;2023-07-29T02:47:04;17.00;99.90
52471;DHT22;38382;53.160;7.026;2023-07-29T02:49:30;17.00;99.90
52471;DHT22;38382;53.160;7.026;2023-07-29T02:51:55;16.90;99.90
52471;DHT22;38382;53.160;7.026;2023-07-29T02:54:21;16.90;99.90
52471;DHT22;38382;53.160;7.026;2023-07-29T02:56:50;16.90;99.90
52471;DHT22;38382;53.160;7.026;2023-07-29T02:59:15;16.90;99.90
52471;DHT22;38382;53.160;7.026;2023-07-29T03:01:42;16.80;99.90
52471;DHT22;38382;53.160;7.026;2023-07-29T03:04:07;16.80;99.90
52471;DHT22;38382;53.160;7.026;2023-07-29T03:06:33;16.80;99.90
52471;DHT22;38382;53.160;7.026;2023-07-29T03:08:59;16.70;99.90
52471;DHT22;38382;53.160;7.026;2023-07-29T03:11:25;16.80;99.90
52471;DHT22;38382;53.160;7.026;2023-07-29T03:13:50;16.70;99.90
52471;DHT22;38382;53.160;7.026;2023-07-29T03:16:17;16.70;99.90
52471;DHT22;38382;53.160;7.026;2023-07-29T03:18:44;16.70;99.90
52471;DHT22;38382;53.160;7.026;2023-07-29T03:21:10;16.60;99.90
52471;DHT22;38382;53.160;7.026;2023-07-29T03:23:37;16.60;99.90
52471;DHT22;38382;53.160;7.026;2023-07-29T03:26:03;16.60;99.90
52471;DHT22;38382;53.160;7.026;2023-07-29T03:28:42;16.60;99.90
52471;DHT22;38382;53.160;7.026;2023-07-29T03:31:08;16.60;99.90
52471;DHT22;38382;53.160;7.026;2023-07-29T03:33:34;16.60;99.90
52471;DHT22;38382;53.160;7.026;2023-07-29T03:36:00;16.60;99.90
52471;DHT22;38382;53.160;7.026;2023-07-29T03:38:25;16.60;99.90
52471;DHT22;38382;53.160;7.026;2023-07-29T03:40:51;16.60;99.90
52471;DHT22;38382;53.160;7.026;2023-07-29T03:43:19;16.60;99.90
52471;DHT22;38382;53.160;7.026;2023-07-29T03:45:44;16.50;99.90
52471;DHT22;38382;53.160;7.026;2023-07-29T03:48:10;16.50;99.90
52471;DHT22;38382;53.160;7.026;2023-07-29T03:50:36;16.40;99.90
52471;DHT22;38382;53.160;7.026;2023-07-29T03:53:02;16.40;99.90
52471;DHT22;38382;53.160;7.026;2023-07-29T03:55:28;16.40;99.90
52471;DHT22;38382;53.160;7.026;2023-07-29T03:58:00;16.40;99.90
52471;DHT22;38382;53.160;7.026;2023-07-29T04:00:26;16.30;99.90
52471;DHT22;38382;53.160;7.026;2023-07-29T04:02:52;16.40;99.90
52471;DHT22;38382;53.160;7.026;2023-07-29T04:05:18;16.30;99.90
52471;DHT22;38382;53.160;7.026;2023-07-29T04:07:44;16.30;99.90
52471;DHT22;38382;53.160;7.026;2023-07-29T04:10:10;16.30;99.90
52471;DHT22;38382;53.160;7.026;2023-07-29T04:12:36;16.30;99.90
52471;DHT22;38382;53.160;7.026;2023-07-29T04:15:02;16.30;99.90
52471;DHT22;38382;53.160;7.026;2023-07-29T04:17:28;16.30;99.90
52471;DHT22;38382;53.160;7.026;2023-07-29T04:19:54;16.30;99.90
52471;DHT22;38382;53.160;7.026;2023-07-29T04:22:19;16.30;99.90
52471;DHT22;38382;53.160;7.026;2023-07-29T04:24:46;16.30;99.90
52471;DHT22;38382;53.160;7.026;2023-07-29T04:27:11;16.30;99.90
52471;DHT22;38382;53.160;7.026;2023-07-29T04:29:37;16.30;99.90
52471;DHT22;38382;53.160;7.026;2023-07-29T04:32:04;16.30;99.90
52471;DHT22;38382;53.160;7.026;2023-07-29T04:34:30;16.30;99.90
52471;DHT22;38382;53.160;7.026;2023-07-29T04:36:56;16.30;99.90
52471;DHT22;38382;53.160;7.026;2023-07-29T04:39:22;16.30;99.90
52471;DHT22;38382;53.160;7.026;2023-07-29T04:41:47;16.40;99.90
52471;DHT22;38382;53.160;7.026;2023-07-29T04:44:13;16.40;99.90
52471;DHT22;38382;53.160;7.026;2023-07-29T04:46:39;16.40;99.90
52471;DHT22;38382;53.160;7.026;2023-07-29T04:49:05;16.50;99.90
52471;DHT22;38382;53.160;7.026;2023-07-29T04:51:31;16.50;99.90
52471;DHT22;38382;53.160;7.026;2023-07-29T04:53:59;16.50;99.90
52471;DHT22;38382;53.160;7.026;2023-07-29T04:56:25;16.60;99.90
52471;DHT22;38382;53.160;7.026;2023-07-29T04:58:51;16.60;99.90
52471;DHT22;38382;53.160;7.026;2023-07-29T05:01:17;16.70;99.90
52471;DHT22;38382;53.160;7.026;2023-07-29T05:03:43;16.70;99.90
52471;DHT22;38382;53.160;7.026;2023-07-29T05:06:09;16.80;99.90
52471;DHT22;38382;53.160;7.026;2023-07-29T05:08:35;16.80;99.90
52471;DHT22;38382;53.160;7.026;2023-07-29T05:11:00;16.90;99.90
52471;DHT22;38382;53.160;7.026;2023-07-29T05:13:26;16.90;99.90
52471;DHT22;38382;53.160;7.026;2023-07-29T05:15:52;17.00;99.90
52471;DHT22;38382;53.160;7.026;2023-07-29T05:18:18;17.00;99.90
52471;DHT22;38382;53.160;7.026;2023-07-29T05:20:43;17.00;99.90
52471;DHT22;38382;53.160;7.026;2023-07-29T05:23:09;17.10;99.90
52471;DHT22;38382;53.160;7.026;2023-07-29T05:25:35;17.10;99.90
52471;DHT22;38382;53.160;7.026;2023-07-29T05:28:01;17.10;99.90
52471;DHT22;38382;53.160;7.026;2023-07-29T05:30:27;17.10;99.90
52471;DHT22;38382;53.160;7.026;2023-07-29T05:32:57;17.20;99.90
52471;DHT22;38382;53.160;7.026;2023-07-29T05:35:23;17.20;99.90
52471;DHT22;38382;53.160;7.026;2023-07-29T05:37:48;17.20;99.90
52471;DHT22;38382;53.160;7.026;2023-07-29T05:40:14;17.20;99.90
52471;DHT22;38382;53.160;7.026;2023-07-29T05:42:40;17.20;99.90
52471;DHT22;38382;53.160;7.026;2023-07-29T05:45:06;17.20;99.90
52471;DHT22;38382;53.160;7.026;2023-07-29T05:47:32;17.20;99.90
52471;DHT22;38382;53.160;7.026;2023-07-29T05:49:58;17.20;99.90
52471;DHT22;38382;53.160;7.026;2023-07-29T05:52:24;17.30;99.90
52471;DHT22;38382;53.160;7.026;2023-07-29T05:54:49;17.30;99.90
52471;DHT22;38382;53.160;7.026;2023-07-29T05:57:15;17.30;99.90
52471;DHT22;38382;53.160;7.026;2023-07-29T05:59:41;17.40;99.90
52471;DHT22;38382;53.160;7.026;2023-07-29T06:02:06;17.40;99.90
52471;DHT22;38382;53.160;7.026;2023-07-29T06:04:32;17.50;99.90
52471;DHT22;38382;53.160;7.026;2023-07-29T06:06:58;17.50;99.90
52471;DHT22;38382;53.160;7.026;2023-07-29T06:09:24;17.50;99.90
52471;DHT22;38382;53.160;7.026;2023-07-29T06:11:51;17.60;99.90
52471;DHT22;38382;53.160;7.026;2023-07-29T06:14:17;17.60;99.90
52471;DHT22;38382;53.160;7.026;2023-07-29T06:16:42;17.70;99.90
52471;DHT22;38382;53.160;7.026;2023-07-29T06:19:08;17.70;99.90
52471;DHT22;38382;53.160;7.026;2023-07-29T06:21:35;17.70;99.90
52471;DHT22;38382;53.160;7.026;2023-07-29T06:24:01;17.80;99.90
52471;DHT22;38382;53.160;7.026;2023-07-29T06:26:27;17.70;99.90
52471;DHT22;38382;53.160;7.026;2023-07-29T06:28:53;17.70;99.90
52471;DHT22;38382;53.160;7.026;2023-07-29T06:31:19;17.70;99.90
52471;DHT22;38382;53.160;7.026;2023-07-29T06:33:45;17.70;99.90
52471;DHT22;38382;53.160;7.026;2023-07-29T06:36:11;17.80;99.90
52471;DHT22;38382;53.160;7.026;2023-07-29T06:38:37;17.80;99.90
52471;DHT22;38382;53.160;7.026;2023-07-29T06:41:04;17.80;99.90
52471;DHT22;38382;53.160;7.026;2023-07-29T06:43:30;17.90;99.90
52471;DHT22;38382;53.160;7.026;2023-07-29T06:45:55;17.90;99.90
52471;DHT22;38382;53.160;7.026;2023-07-29T06:48:21;18.00;99.90
52471;DHT22;38382;53.160;7.026;2023-07-29T06:50:47;17.90;99.90
52471;DHT22;38382;53.160;7.026;2023-07-29T06:53:13;18.10;99.90
52471;DHT22;38382;53.160;7.026;2023-07-29T06:55:39;18.10;99.90
52471;DHT22;38382;53.160;7.026;2023-07-29T06:58:05;18.10;99.90
52471;DHT22;38382;53.160;7.026;2023-07-29T07:00:31;18.30;99.90
52471;DHT22;38382;53.160;7.026;2023-07-29T07:02:56;18.40;99.90
52471;DHT22;38382;53.160;7.026;2023-07-29T07:05:22;18.50;99.90
52471;DHT22;38382;53.160;7.026;2023-07-29T07:07:48;18.70;99.90
52471;DHT22;38382;53.160;7.026;2023-07-29T07:10:14;18.70;99.90
52471;DHT22;38382;53.160;7.026;2023-07-29T07:12:40;18.80;99.90
52471;DHT22;38382;53.160;7.026;2023-07-29T07:15:06;18.90;99.90
52471;DHT22;38382;53.160;7.026;2023-07-29T07:17:32;19.00;99.90
52471;DHT22;38382;53.160;7.026;2023-07-29T07:19:57;19.10;99.90
52471;DHT22;38382;53.160;7.026;2023-07-29T07:22:23;19.10;99.90
52471;DHT22;38382;53.160;7.026;2023-07-29T07:24:49;19.30;99.90
52471;DHT22;38382;53.160;7.026;2023-07-29T07:27:15;19.40;99.90
52471;DHT22;38382;53.160;7.026;2023-07-29T07:29:40;19.50;99.90
52471;DHT22;38382;53.160;7.026;2023-07-29T07:32:06;19.70;99.90
52471;DHT22;38382;53.160;7.026;2023-07-29T07:34:32;19.70;99.90
52471;DHT22;38382;53.160;7.026;2023-07-29T07:36:58;19.70;99.90
52471;DHT22;38382;53.160;7.026;2023-07-29T07:39:24;19.80;99.90
52471;DHT22;38382;53.160;7.026;2023-07-29T07:41:50;19.90;99.90
52471;DHT22;38382;53.160;7.026;2023-07-29T07:44:16;19.90;99.90
52471;DHT22;38382;53.160;7.026;2023-07-29T07:46:43;19.90;99.90
52471;DHT22;38382;53.160;7.026;2023-07-29T07:49:10;20.00;99.90
52471;DHT22;38382;53.160;7.026;2023-07-29T07:51:35;20.00;99.90
52471;DHT22;38382;53.160;7.026;2023-07-29T07:54:01;20.10;99.90
52471;DHT22;38382;53.160;7.026;2023-07-29T07:56:27;20.20;99.90
52471;DHT22;38382;53.160;7.026;2023-07-29T07:58:52;20.30;99.90
52471;DHT22;38382;53.160;7.026;2023-07-29T08:01:18;20.40;99.90
52471;DHT22;38382;53.160;7.026;2023-07-29T08:03:44;20.30;99.90
52471;DHT22;38382;53.160;7.026;2023-07-29T08:06:10;20.40;99.90
52471;DHT22;38382;53.160;7.026;2023-07-29T08:08:35;20.40;99.90
52471;DHT22;38382;53.160;7.026;2023-07-29T08:11:01;20.50;99.90
52471;DHT22;38382;53.160;7.026;2023-07-29T08:13:27;20.50;99.90
52471;DHT22;38382;53.160;7.026;2023-07-29T08:15:53;20.40;99.90
52471;DHT22;38382;53.160;7.026;2023-07-29T08:18:18;20.50;99.90
52471;DHT22;38382;53.160;7.026;2023-07-29T08:20:58;20.60;99.90
52471;DHT22;38382;53.160;7.026;2023-07-29T08:23:25;20.70;99.90
52471;DHT22;38382;53.160;7.026;2023-07-29T08:25:56;20.70;99.90
52471;DHT22;38382;53.160;7.026;2023-07-29T08:28:33;20.70;99.90
52471;DHT22;38382;53.160;7.026;2023-07-29T08:30:59;20.60;99.90
52471;DHT22;38382;53.160;7.026;2023-07-29T08:33:26;20.80;99.90
52471;DHT22;38382;53.160;7.026;2023-07-29T08:35:52;21.10;99.90
52471;DHT22;38382;53.160;7.026;2023-07-29T08:38:18;21.20;99.90
52471;DHT22;38382;53.160;7.026;2023-07-29T08:40:53;21.40;99.90
52471;DHT22;38382;53.160;7.026;2023-07-29T08:43:21;21.50;99.90
52471;DHT22;38382;53.160;7.026;2023-07-29T08:45:49;21.60;99.90
52471;DHT22;38382;53.160;7.026;2023-07-29T08:48:19;21.40;99.90
52471;DHT22;38382;53.160;7.026;2023-07-29T08:50:47;21.50;99.90
52471;DHT22;38382;53.160;7.026;2023-07-29T08:53:13;21.40;99.90
52471;DHT22;38382;53.160;7.026;2023-07-29T08:55:39;21.60;99.90
52471;DHT22;38382;53.160;7.026;2023-07-29T08:58:05;21.80;99.90
52471;DHT22;38382;53.160;7.026;2023-07-29T09:00:31;21.90;99.90
52471;DHT22;38382;53.160;7.026;2023-07-29T09:02:57;22.10;99.90
52471;DHT22;38382;53.160;7.026;2023-07-29T09:05:28;22.50;99.90
52471;DHT22;38382;53.160;7.026;2023-07-29T09:07:54;22.80;99.90
52471;DHT22;38382;53.160;7.026;2023-07-29T09:10:22;22.80;99.90
52471;DHT22;38382;53.160;7.026;2023-07-29T09:12:49;22.80;99.90
52471;DHT22;38382;53.160;7.026;2023-07-29T09:15:30;22.50;99.90
52471;DHT22;38382;53.160;7.026;2023-07-29T09:17:57;22.40;99.90
52471;DHT22;38382;53.160;7.026;2023-07-29T09:20:29;22.30;99.90
52471;DHT22;38382;53.160;7.026;2023-07-29T09:22:55;22.20;99.90
52471;DHT22;38382;53.160;7.026;2023-07-29T09:25:25;22.20;99.90
52471;DHT22;38382;53.160;7.026;2023-07-29T09:27:51;22.20;99.90
52471;DHT22;38382;53.160;7.026;2023-07-29T09:30:17;22.40;99.90
52471;DHT22;38382;53.160;7.026;2023-07-29T09:32:43;22.50;99.90
52471;DHT22;38382;53.160;7.026;2023-07-29T09:35:12;22.50;99.90
52471;DHT22;38382;53.160;7.026;2023-07-29T09:37:38;22.80;99.90
52471;DHT22;38382;53.160;7.026;2023-07-29T09:40:06;22.70;99.90
52471;DHT22;38382;53.160;7.026;2023-07-29T09:42:32;22.50;99.90
52471;DHT22;38382;53.160;7.026;2023-07-29T09:44:58;22.30;99.90
52471;DHT22;38382;53.160;7.026;2023-07-29T09:47:25;22.20;99.90
52471;DHT22;38382;53.160;7.026;2023-07-29T09:49:52;22.20;99.90
52471;DHT22;38382;53.160;7.026;2023-07-29T09:52:19;22.30;99.90
52471;DHT22;38382;53.160;7.026;2023-07-29T09:54:46;22.40;99.90
52471;DHT22;38382;53.160;7.026;2023-07-29T09:57:14;22.30;99.90
52471;DHT22;38382;53.160;7.026;2023-07-29T09:59:41;22.20;99.90
52471;DHT22;38382;53.160;7.026;2023-07-29T10:02:16;22.10;99.90
52471;DHT22;38382;53.160;7.026;2023-07-29T10:04:42;22.00;99.90
52471;DHT22;38382;53.160;7.026;2023-07-29T10:07:10;22.10;99.90
52471;DHT22;38382;53.160;7.026;2023-07-29T10:09:36;22.50;99.90
52471;DHT22;38382;53.160;7.026;2023-07-29T10:12:05;22.70;99.90
52471;DHT22;38382;53.160;7.026;2023-07-29T10:14:31;23.20;99.90
52471;DHT22;38382;53.160;7.026;2023-07-29T10:16:58;23.50;99.90
52471;DHT22;38382;53.160;7.026;2023-07-29T10:19:25;23.40;99.90
52471;DHT22;38382;53.160;7.026;2023-07-29T10:21:52;23.30;99.90
52471;DHT22;38382;53.160;7.026;2023-07-29T10:24:25;23.30;99.90
52471;DHT22;38382;53.160;7.026;2023-07-29T10:26:58;23.30;99.90
52471;DHT22;38382;53.160;7.026;2023-07-29T10:29:24;23.20;99.90
52471;DHT22;38382;53.160;7.026;2023-07-29T10:31:54;23.40;99.90
52471;DHT22;38382;53.160;7.026;2023-07-29T10:34:21;23.30;99.90
52471;DHT22;38382;53.160;7.026;2023-07-29T10:36:49;23.40;99.90
52471;DHT22;38382;53.160;7.026;2023-07-29T10:39:15;23.50;99.90
52471;DHT22;38382;53.160;7.026;2023-07-29T10:42:02;23.40;99.90
52471;DHT22;38382;53.160;7.026;2023-07-29T10:47:14;23.70;99.90
52471;DHT22;38382;53.160;7.026;2023-07-29T10:49:41;23.70;99.90
52471;DHT22;38382;53.160;7.026;2023-07-29T10:52:07;23.90;99.90
52471;DHT22;38382;53.160;7.026;2023-07-29T10:54:46;23.90;99.90
52471;DHT22;38382;53.160;7.026;2023-07-29T10:57:13;23.90;99.90
52471;DHT22;38382;53.160;7.026;2023-07-29T10:59:40;23.90;99.90
52471;DHT22;38382;53.160;7.026;2023-07-29T11:02:15;23.90;99.90
52471;DHT22;38382;53.160;7.026;2023-07-29T11:04:51;23.90;99.90
52471;DHT22;38382;53.160;7.026;2023-07-29T11:15:26;24.20;99.90
52471;DHT22;38382;53.160;7.026;2023-07-29T11:17:59;25.00;99.90
52471;DHT22;38382;53.160;7.026;2023-07-29T11:20:33;25.60;99.90
52471;DHT22;38382;53.160;7.026;2023-07-29T11:23:00;26.20;99.90
52471;DHT22;38382;53.160;7.026;2023-07-29T11:25:27;26.70;99.90
52471;DHT22;38382;53.160;7.026;2023-07-29T11:27:58;27.10;99.90
52471;DHT22;38382;53.160;7.026;2023-07-29T11:30:25;27.00;99.90
52471;DHT22;38382;53.160;7.026;2023-07-29T11:32:54;26.70;99.90
52471;DHT22;38382;53.160;7.026;2023-07-29T11:35:21;26.30;99.90
52471;DHT22;38382;53.160;7.026;2023-07-29T11:41:52;25.90;99.90
52471;DHT22;38382;53.160;7.026;2023-07-29T11:44:18;25.70;99.90
52471;DHT22;38382;53.160;7.026;2023-07-29T11:46:44;25.40;99.90
52471;DHT22;38382;53.160;7.026;2023-07-29T11:49:10;25.30;99.90
52471;DHT22;38382;53.160;7.026;2023-07-29T11:51:41;25.20;99.90
52471;DHT22;38382;53.160;7.026;2023-07-29T11:54:08;25.00;99.90
52471;DHT22;38382;53.160;7.026;2023-07-29T11:56:37;24.50;99.90
52471;DHT22;38382;53.160;7.026;2023-07-29T11:59:11;24.50;99.90
52471;DHT22;38382;53.160;7.026;2023-07-29T12:01:38;24.80;99.90
52471;DHT22;38382;53.160;7.026;2023-07-29T12:04:04;25.00;99.90
52471;DHT22;38382;53.160;7.026;2023-07-29T12:06:30;25.20;99.90
52471;DHT22;38382;53.160;7.026;2023-07-29T12:08:57;25.00;99.90
52471;DHT22;38382;53.160;7.026;2023-07-29T12:11:23;25.20;99.90
52471;DHT22;38382;53.160;7.026;2023-07-29T12:13:49;25.40;99.90
52471;DHT22;38382;53.160;7.026;2023-07-29T12:16:17;25.40;99.90
52471;DHT22;38382;53.160;7.026;2023-07-29T12:18:46;25.60;99.90
52471;DHT22;38382;53.160;7.026;2023-07-29T12:21:14;25.60;99.90
52471;DHT22;38382;53.160;7.026;2023-07-29T12:23:40;25.80;99.90
52471;DHT22;38382;53.160;7.026;2023-07-29T12:26:06;26.20;99.90
52471;DHT22;38382;53.160;7.026;2023-07-29T12:28:32;26.30;99.90
52471;DHT22;38382;53.160;7.026;2023-07-29T12:30:59;26.60;99.90
52471;DHT22;38382;53.160;7.026;2023-07-29T12:33:35;26.80;99.90
52471;DHT22;38382;53.160;7.026;2023-07-29T12:36:02;27.00;99.90
52471;DHT22;38382;53.160;7.026;2023-07-29T12:38:30;26.60;99.90
52471;DHT22;38382;53.160;7.026;2023-07-29T12:40:56;26.20;99.90
52471;DHT22;38382;53.160;7.026;2023-07-29T12:43:22;25.90;99.90
52471;DHT22;38382;53.160;7.026;2023-07-29T12:45:57;25.90;99.90
52471;DHT22;38382;53.160;7.026;2023-07-29T12:48:26;25.50;99.90
52471;DHT22;38382;53.160;7.026;2023-07-29T12:50:52;25.20;99.90
52471;DHT22;38382;53.160;7.026;2023-07-29T12:53:17;24.70;99.90
52471;DHT22;38382;53.160;7.026;2023-07-29T12:55:43;24.10;99.90
52471;DHT22;38382;53.160;7.026;2023-07-29T12:58:09;23.80;99.90
52471;DHT22;38382;53.160;7.026;2023-07-29T13:00:34;23.80;99.90
52471;DHT22;38382;53.160;7.026;2023-07-29T13:03:00;23.90;99.90
52471;DHT22;38382;53.160;7.026;2023-07-29T13:05:26;24.30;99.90
52471;DHT22;38382;53.160;7.026;2023-07-29T13:07:52;24.50;99.90
52471;DHT22;38382;53.160;7.026;2023-07-29T13:10:17;25.10;99.90
52471;DHT22;38382;53.160;7.026;2023-07-29T13:12:43;25.40;99.90
52471;DHT22;38382;53.160;7.026;2023-07-29T13:15:10;26.00;99.90
52471;DHT22;38382;53.160;7.026;2023-07-29T13:17:35;26.40;99.90
52471;DHT22;38382;53.160;7.026;2023-07-29T13:20:03;26.90;99.90
52471;DHT22;38382;53.160;7.026;2023-07-29T13:22:29;27.10;99.90
52471;DHT22;38382;53.160;7.026;2023-07-29T13:24:54;27.30;99.90
52471;DHT22;38382;53.160;7.026;2023-07-29T13:27:20;27.70;99.90
52471;DHT22;38382;53.160;7.026;2023-07-29T13:29:46;27.90;99.90
52471;DHT22;38382;53.160;7.026;2023-07-29T13:32:15;28.10;99.90
52471;DHT22;38382;53.160;7.026;2023-07-29T13:34:41;27.90;99.90
52471;DHT22;38382;53.160;7.026;2023-07-29T13:37:06;27.60;99.90
52471;DHT22;38382;53.160;7.026;2023-07-29T13:39:32;27.90;99.90
52471;DHT22;38382;53.160;7.026;2023-07-29T13:41:58;27.60;99.90
52471;DHT22;38382;53.160;7.026;2023-07-29T13:44:24;27.20;99.90
52471;DHT22;38382;53.160;7.026;2023-07-29T13:46:49;26.70;99.90
52471;DHT22;38382;53.160;7.026;2023-07-29T13:49:15;26.50;99.90
52471;DHT22;38382;53.160;7.026;2023-07-29T13:51:41;26.20;99.90
52471;DHT22;38382;53.160;7.026;2023-07-29T13:54:08;26.20;99.90
52471;DHT22;38382;53.160;7.026;2023-07-29T13:56:33;26.00;99.90
52471;DHT22;38382;53.160;7.026;2023-07-29T13:58:59;26.30;99.90
52471;DHT22;38382;53.160;7.026;2023-07-29T14:01:25;26.80;99.90
52471;DHT22;38382;53.160;7.026;2023-07-29T14:03:50;27.30;99.90
52471;DHT22;38382;53.160;7.026;2023-07-29T14:06:19;27.70;99.90
52471;DHT22;38382;53.160;7.026;2023-07-29T14:08:44;27.50;99.90
52471;DHT22;38382;53.160;7.026;2023-07-29T14:11:10;27.10;99.90
52471;DHT22;38382;53.160;7.026;2023-07-29T14:13:36;27.40;99.90
52471;DHT22;38382;53.160;7.026;2023-07-29T14:16:02;27.90;99.90
52471;DHT22;38382;53.160;7.026;2023-07-29T14:18:28;28.00;99.90
52471;DHT22;38382;53.160;7.026;2023-07-29T14:20:54;27.70;99.90
52471;DHT22;38382;53.160;7.026;2023-07-29T14:23:20;27.80;99.90
52471;DHT22;38382;53.160;7.026;2023-07-29T14:25:45;27.90;99.90
52471;DHT22;38382;53.160;7.026;2023-07-29T14:28:13;27.60;99.90
52471;DHT22;38382;53.160;7.026;2023-07-29T14:30:39;27.50;99.90
52471;DHT22;38382;53.160;7.026;2023-07-29T14:33:06;27.10;99.90
52471;DHT22;38382;53.160;7.026;2023-07-29T14:35:32;26.40;99.90
52471;DHT22;38382;53.160;7.026;2023-07-29T14:37:58;26.20;99.90
52471;DHT22;38382;53.160;7.026;2023-07-29T14:40:23;26.00;99.90
52471;DHT22;38382;53.160;7.026;2023-07-29T14:42:49;26.10;99.90
52471;DHT22;38382;53.160;7.026;2023-07-29T14:45:15;25.80;99.90
52471;DHT22;38382;53.160;7.026;2023-07-29T14:47:40;26.00;99.90
52471;DHT22;38382;53.160;7.026;2023-07-29T14:50:06;26.30;99.90
52471;DHT22;38382;53.160;7.026;2023-07-29T14:52:32;27.00;99.90
52471;DHT22;38382;53.160;7.026;2023-07-29T14:54:58;27.60;99.90
52471;DHT22;38382;53.160;7.026;2023-07-29T14:57:24;28.10;99.90
52471;DHT22;38382;53.160;7.026;2023-07-29T14:59:49;28.30;99.90
52471;DHT22;38382;53.160;7.026;2023-07-29T15:02:15;28.60;99.90
52471;DHT22;38382;53.160;7.026;2023-07-29T15:04:41;29.00;99.90
52471;DHT22;38382;53.160;7.026;2023-07-29T15:07:06;29.50;99.00
52471;DHT22;38382;53.160;7.026;2023-07-29T15:09:32;29.10;98.10
52471;DHT22;38382;53.160;7.026;2023-07-29T15:11:58;28.70;99.20
52471;DHT22;38382;53.160;7.026;2023-07-29T15:14:24;28.00;99.40
52471;DHT22;38382;53.160;7.026;2023-07-29T15:16:49;28.00;99.10
52471;DHT22;38382;53.160;7.026;2023-07-29T15:19:16;27.80;99.70
52471;DHT22;38382;53.160;7.026;2023-07-29T15:21:42;27.70;99.90
52471;DHT22;38382;53.160;7.026;2023-07-29T15:24:08;27.80;99.90
52471;DHT22;38382;53.160;7.026;2023-07-29T15:26:34;27.60;99.90
52471;DHT22;38382;53.160;7.026;2023-07-29T15:29:00;28.20;99.90
52471;DHT22;38382;53.160;7.026;2023-07-29T15:31:27;28.60;98.70
52471;DHT22;38382;53.160;7.026;2023-07-29T15:33:53;28.90;98.20
52471;DHT22;38382;53.160;7.026;2023-07-29T15:36:18;28.70;97.00
52471;DHT22;38382;53.160;7.026;2023-07-29T15:38:44;28.20;98.10
52471;DHT22;38382;53.160;7.026;2023-07-29T15:41:10;27.60;98.50
52471;DHT22;38382;53.160;7.026;2023-07-29T15:43:36;28.20;98.60